Fairview, West Virginia
Current Conditions -  °F | °C
As of 6:53 AM on Thursday 18 Dec 2014 (Local Time) from KMGW Reporting Station
Overcast Overcast  
Wind Chill: 22°   Ceiling: 1800
Heat Index: 27°   Visibility: 10mi
Dew Point: 17°   Wind: 5mph
Humidity: 66%   Direction: 310°NW
Pressure: 30.21"   Gusts: NA
Location:  39.59°N, 80.25°W
Report Text: KMGW 181153Z 31004KT 10SM OVC018 M03/M08 A3021 RMK AO2 SLP243 T10281083 11011 21028 53010
Loading
Personal Weather Stations






























Interactive Weather Map New forecast layout! Learn more

10-Day Weather Forecast

Advertisements
Track Severe Weather on mobile